Time;durP1;ratioP1;P1;durP2;ratioP2;P2;SDS_P1;SDS_P2;PMS_P1;PMS_P2;Temp;Humidity;BMP_temperature;BMP_pressure;BME280_temperature;BME280_humidity;BME280_pressure;Samples;Min_cycle;Max_cycle;Signal;HPM_P1;HPM_P2
2022/10/23 00:02:14;;;;;;;30.40;18.10;;;;;;;13.53;98.11;100139.80;126874;1286;107508;-80
2022/10/23 00:05:20;;;;;;;34.50;18.60;;;;;;;13.55;98.15;100143.89;126832;1278;107507;-80
2022/10/23 00:08:25;;;;;;;26.90;16.00;;;;;;;13.52;98.15;100150.63;126885;1279;109251;-80
2022/10/23 00:11:32;;;;;;;31.50;17.50;;;;;;;13.50;98.20;100151.58;127165;1286;107369;-80
2022/10/23 00:14:37;;;;;;;31.40;17.90;;;;;;;13.55;98.25;100153.13;126861;1278;107514;-80
2022/10/23 00:17:43;;;;;;;30.20;18.70;;;;;;;13.59;98.46;100154.11;127063;1279;107636;-78
2022/10/23 00:20:48;;;;;;;34.30;20.30;;;;;;;13.56;98.59;100161.08;127039;1282;107516;-79
2022/10/23 00:23:54;;;;;;;33.00;19.80;;;;;;;13.50;98.81;100162.98;127216;1278;107386;-79
2022/10/23 00:26:59;;;;;;;30.10;17.30;;;;;;;13.47;98.76;100169.08;127143;1279;106648;-78
2022/10/23 00:30:06;;;;;;;30.80;18.70;;;;;;;13.46;98.66;100173.86;126789;1279;107509;-78
2022/10/23 00:33:12;;;;;;;28.60;19.00;;;;;;;13.48;98.99;100173.73;127229;1286;107511;-79
2022/10/23 00:36:19;;;;;;;32.00;19.70;;;;;;;13.50;98.75;100175.53;127114;1275;107512;-78
2022/10/23 00:39:25;;;;;;;34.40;20.30;;;;;;;13.53;98.75;100178.50;127000;1280;107357;-79
2022/10/23 00:42:31;;;;;;;34.00;22.00;;;;;;;13.51;98.79;100177.33;126764;1279;107383;-80
2022/10/23 00:45:36;;;;;;;32.20;18.80;;;;;;;13.46;99.06;100177.54;126916;1286;108599;-79
2022/10/23 00:48:43;;;;;;;32.20;19.90;;;;;;;13.46;98.99;100183.83;126670;1286;107520;-80
2022/10/23 00:51:51;;;;;;;34.90;22.20;;;;;;;13.47;99.30;100180.52;127049;1279;107516;-80
2022/10/23 00:54:58;;;;;;;32.00;20.20;;;;;;;13.50;98.93;100188.00;127191;1278;107371;-80
2022/10/23 00:58:03;;;;;;;40.20;24.20;;;;;;;13.50;99.14;100183.77;127055;1278;108014;-80
2022/10/23 01:01:19;;;;;;;34.00;22.00;;;;;;;13.48;99.06;100188.45;126961;1279;107489;-79
2022/10/23 01:04:27;;;;;;;33.10;22.10;;;;;;;13.46;99.66;100191.71;126854;1286;106467;-79
2022/10/23 01:07:43;;;;;;;33.40;21.50;;;;;;;13.41;99.94;100196.59;126884;1279;107643;-78
2022/10/23 01:10:54;;;;;;;31.70;21.60;;;;;;;13.41;99.72;100199.95;126877;1278;106206;-79
2022/10/23 01:14:06;;;;;;;33.10;21.60;;;;;;;13.41;99.53;100201.50;126970;1279;107472;-79
2022/10/23 01:17:23;;;;;;;32.40;20.70;;;;;;;13.44;99.42;100203.74;126879;1272;107490;-79
2022/10/23 01:20:40;;;;;;;37.60;21.70;;;;;;;13.47;99.27;100202.85;126931;1279;108697;-79
2022/10/23 01:24:09;;;;;;;31.20;22.20;;;;;;;13.47;99.47;100205.20;126673;1282;107538;-79
2022/10/23 01:27:22;;;;;;;34.00;22.00;;;;;;;13.46;99.56;100206.11;126994;1286;107636;-80
2022/10/23 01:30:29;;;;;;;33.80;21.60;;;;;;;13.47;99.48;100206.27;126791;1281;108535;-79
2022/10/23 01:33:39;;;;;;;30.40;19.70;;;;;;;13.45;99.33;100204.14;126806;1279;107440;-79
2022/10/23 01:36:47;;;;;;;29.60;20.40;;;;;;;13.47;99.15;100213.58;126881;1288;107608;-80
2022/10/23 01:39:58;;;;;;;30.80;20.20;;;;;;;13.48;99.05;100206.67;126729;1279;107517;-80
2022/10/23 01:43:11;;;;;;;30.30;20.40;;;;;;;13.48;98.91;100207.52;127069;1278;108020;-80
2022/10/23 01:46:18;;;;;;;33.40;20.90;;;;;;;13.48;98.70;100212.00;126988;1278;107636;-79
2022/10/23 01:49:24;;;;;;;28.80;19.70;;;;;;;13.44;99.07;100215.02;126689;1285;107529;-79
2022/10/23 01:52:33;;;;;;;30.80;21.30;;;;;;;13.38;99.09;100217.80;126948;1286;107610;-80
2022/10/23 01:55:44;;;;;;;29.10;19.40;;;;;;;13.35;99.09;100219.30;127092;1279;107523;-81
2022/10/23 01:58:57;;;;;;;29.80;19.00;;;;;;;13.37;98.86;100226.71;126951;1296;107486;-81
2022/10/23 02:02:05;;;;;;;30.60;19.50;;;;;;;13.33;98.62;100226.91;126813;1282;107274;-79
2022/10/23 02:05:15;;;;;;;27.40;20.00;;;;;;;13.30;98.87;100225.96;126956;1275;106408;-79
2022/10/23 02:08:20;;;;;;;31.60;20.60;;;;;;;13.25;98.80;100226.51;126681;1279;107539;-79
2022/10/23 02:11:26;;;;;;;28.10;20.20;;;;;;;13.20;98.81;100226.02;126864;1279;107513;-79
2022/10/23 02:14:44;;;;;;;30.10;19.70;;;;;;;13.16;98.57;100226.61;126664;1281;107525;-79
2022/10/23 02:17:56;;;;;;;27.90;18.50;;;;;;;13.09;98.48;100227.00;126641;1289;107380;-79
2022/10/23 02:21:07;;;;;;;30.50;20.60;;;;;;;13.05;98.53;100225.70;126667;1282;107354;-79
2022/10/23 02:24:17;;;;;;;30.60;20.50;;;;;;;13.02;98.57;100225.52;126851;1286;106040;-79
2022/10/23 02:27:30;;;;;;;33.40;21.80;;;;;;;13.00;98.95;100224.65;126903;1279;107622;-79
2022/10/23 02:30:41;;;;;;;30.30;19.50;;;;;;;12.96;98.97;100228.77;126691;1289;108098;-80
2022/10/23 02:33:47;;;;;;;;;;;;;;;12.97;99.22;100225.55;126726;1278;107495;-80
2022/10/23 02:36:52;;;;;;;27.60;18.80;;;;;;;12.95;99.15;100230.20;126666;1272;107356;-80
2022/10/23 02:39:58;;;;;;;29.00;20.00;;;;;;;12.97;99.03;100231.17;126953;1285;107455;-80
2022/10/23 02:43:14;;;;;;;32.30;21.10;;;;;;;13.02;99.25;100235.86;126702;1280;107399;-79
2022/10/23 02:46:29;;;;;;;30.50;20.40;;;;;;;13.02;98.94;100237.88;126867;1278;107631;-79
2022/10/23 02:49:44;;;;;;;31.60;19.40;;;;;;;12.99;98.93;100240.69;126865;1286;107527;-79
2022/10/23 02:52:59;;;;;;;31.20;18.90;;;;;;;12.91;99.22;100244.14;126938;1280;107452;-79
2022/10/23 02:56:12;;;;;;;30.80;19.20;;;;;;;12.89;99.26;100242.27;126761;1275;107502;-79
2022/10/23 02:59:26;;;;;;;25.70;18.80;;;;;;;12.89;99.26;100252.11;126935;1279;107471;-79
2022/10/23 03:02:37;;;;;;;25.90;17.40;;;;;;;12.87;99.20;100257.13;126708;1282;106043;-79
2022/10/23 03:05:45;;;;;;;28.00;18.20;;;;;;;12.86;99.09;100254.21;126870;1286;106038;-80
2022/10/23 03:08:57;;;;;;;27.00;18.50;;;;;;;12.86;99.00;100256.02;126916;1286;107562;-80
2022/10/23 03:12:04;;;;;;;27.70;19.20;;;;;;;12.84;99.10;100260.70;126925;1286;107629;-80
2022/10/23 03:15:12;;;;;;;27.60;18.40;;;;;;;12.78;98.81;100261.71;126889;1278;107516;-77
2022/10/23 03:18:18;;;;;;;26.30;18.00;;;;;;;12.81;98.94;100267.27;126757;1286;107500;-78
2022/10/23 03:21:26;;;;;;;26.80;17.00;;;;;;;12.82;98.85;100270.89;126859;1279;107664;-78
2022/10/23 03:24:31;;;;;;;28.30;17.90;;;;;;;12.81;98.77;100271.48;126887;1286;107534;-80
2022/10/23 03:27:37;;;;;;;27.00;18.90;;;;;;;12.84;98.73;100272.49;126941;1279;107396;-77
2022/10/23 03:30:43;;;;;;;24.60;17.10;;;;;;;12.82;98.63;100268.70;126739;1286;107522;-80
2022/10/23 03:33:49;;;;;;;24.60;17.90;;;;;;;12.88;98.54;100274.37;126815;1278;107369;-80
2022/10/23 03:36:54;;;;;;;22.90;15.90;;;;;;;12.92;98.40;100275.31;126791;1286;107496;-81
2022/10/23 03:40:00;;;;;;;25.40;16.80;;;;;;;12.96;98.33;100277.75;126844;1295;107598;-80
2022/10/23 03:43:08;;;;;;;23.80;16.30;;;;;;;13.01;98.38;100275.60;127029;1279;107524;-79
2022/10/23 03:46:16;;;;;;;24.60;18.30;;;;;;;13.07;98.19;100279.64;126857;1286;107521;-79
2022/10/23 03:49:22;;;;;;;27.30;19.40;;;;;;;13.11;98.08;100286.64;126887;1280;107613;-79
2022/10/23 03:52:27;;;;;;;26.00;18.20;;;;;;;13.11;97.92;100288.09;126934;1279;107532;-79
2022/10/23 03:55:33;;;;;;;24.80;15.80;;;;;;;13.12;97.84;100286.58;126915;1279;107353;-78
2022/10/23 03:58:38;;;;;;;22.10;15.90;;;;;;;13.11;97.72;100287.80;126663;1282;107522;-78
2022/10/23 04:01:45;;;;;;;23.80;16.20;;;;;;;13.12;97.74;100285.48;126794;1279;107521;-80
2022/10/23 04:04:51;;;;;;;21.00;15.50;;;;;;;13.15;97.55;100281.34;126917;1286;107247;-81
2022/10/23 04:07:58;;;;;;;23.30;16.10;;;;;;;13.15;97.57;100284.06;126843;1281;107340;-80
2022/10/23 04:11:04;;;;;;;20.00;14.30;;;;;;;13.16;97.60;100287.48;127301;1286;107376;-80
2022/10/23 04:14:15;;;;;;;27.70;16.60;;;;;;;13.16;97.44;100286.80;127271;1286;106565;-80
2022/10/23 04:17:21;;;;;;;23.90;15.50;;;;;;;13.20;97.50;100289.95;127311;1286;106483;-80
2022/10/23 04:20:28;;;;;;;22.60;15.80;;;;;;;13.24;97.34;100290.77;127247;1286;107605;-81
2022/10/23 04:23:33;;;;;;;23.10;14.50;;;;;;;13.24;97.34;100290.63;127134;1281;108027;-80
2022/10/23 04:26:39;;;;;;;58.00;35.40;;;;;;;13.24;97.22;100294.53;127162;1280;107516;-80
2022/10/23 04:29:49;;;;;;;32.50;22.40;;;;;;;13.26;97.31;100298.05;126881;1289;107479;-80
2022/10/23 04:32:54;;;;;;;35.50;22.60;;;;;;;13.28;97.32;100297.77;126781;1281;107293;-80
2022/10/23 04:35:59;;;;;;;30.80;20.30;;;;;;;13.31;97.04;100299.14;126692;1286;107359;-80
2022/10/23 04:39:05;;;;;;;25.70;17.30;;;;;;;13.26;97.15;100294.64;126911;1279;107577;-80
2022/10/23 04:42:10;;;;;;;20.20;13.90;;;;;;;13.23;96.97;100291.90;126801;1282;106613;-80
2022/10/23 04:45:16;;;;;;;19.90;14.40;;;;;;;13.23;97.12;100291.93;126708;1289;107563;-80
2022/10/23 04:48:22;;;;;;;25.40;18.10;;;;;;;13.27;97.17;100297.08;126875;1279;107252;-80
2022/10/23 04:51:57;;;;;;;63.60;40.10;;;;;;;13.28;97.20;100302.41;126904;1288;107522;-81
2022/10/23 04:55:31;;;;;;;26.50;18.50;;;;;;;13.30;97.17;100310.67;127042;1281;107584;-81
2022/10/23 04:58:50;;;;;;;22.70;15.20;;;;;;;13.31;97.01;100314.52;126954;1279;107536;-81
2022/10/23 05:01:55;;;;;;;23.60;15.90;;;;;;;13.33;96.97;100315.20;126822;1286;107571;-81
2022/10/23 05:05:02;;;;;;;39.90;26.70;;;;;;;13.34;96.68;100312.88;126943;1278;107502;-81
2022/10/23 05:08:14;;;;;;;130.10;81.50;;;;;;;13.35;96.72;100314.91;126925;1272;107524;-81
2022/10/23 05:11:42;;;;;;;38.10;25.00;;;;;;;13.35;96.88;100313.67;127003;1279;107767;-80
2022/10/23 05:14:48;;;;;;;24.10;16.60;;;;;;;13.36;96.92;100314.98;126743;1285;107340;-80
2022/10/23 05:17:58;;;;;;;21.90;15.60;;;;;;;13.39;96.80;100313.30;126898;1285;107442;-80
2022/10/23 05:21:09;;;;;;;43.50;28.60;;;;;;;13.42;96.67;100317.42;126633;1282;107285;-80
2022/10/23 05:24:19;;;;;;;23.10;16.50;;;;;;;13.44;96.73;100317.91;126913;1279;107402;-82
2022/10/23 05:27:33;;;;;;;18.90;14.00;;;;;;;13.46;96.61;100323.26;126909;1286;107466;-80
2022/10/23 05:30:40;;;;;;;15.10;11.40;;;;;;;13.44;96.65;100320.01;126692;1272;107517;-81
2022/10/23 05:33:46;;;;;;;15.40;9.80;;;;;;;13.45;96.80;100317.24;127007;1287;107538;-81
2022/10/23 05:36:52;;;;;;;16.00;10.70;;;;;;;13.45;96.62;100318.63;127048;1286;107235;-80
2022/10/23 05:40:01;;;;;;;15.40;12.00;;;;;;;13.47;96.82;100317.75;126826;1279;107445;-80
2022/10/23 05:43:06;;;;;;;13.80;11.10;;;;;;;13.49;96.74;100318.02;126963;1285;107767;-80
2022/10/23 05:46:24;;;;;;;15.10;9.40;;;;;;;13.50;96.77;100319.18;126995;1286;107511;-79
2022/10/23 05:49:47;;;;;;;10.90;8.90;;;;;;;13.50;96.66;100327.29;126723;1286;107508;-80
2022/10/23 05:52:52;;;;;;;14.50;10.60;;;;;;;13.52;96.69;100326.98;127247;1286;107318;-80
2022/10/23 05:56:11;;;;;;;18.60;12.80;;;;;;;13.56;96.64;100326.89;126932;1284;107539;-75
2022/10/23 05:59:25;;;;;;;17.60;12.60;;;;;;;13.59;96.53;100319.61;126915;1279;107508;-75
2022/10/23 06:02:47;;;;;;;21.20;15.60;;;;;;;13.61;96.53;100319.27;126799;1278;107546;-77
2022/10/23 06:06:09;;;;;;;19.10;13.30;;;;;;;13.61;96.48;100323.19;126957;1279;106931;-76
2022/10/23 06:09:26;;;;;;;19.60;12.50;;;;;;;13.62;96.60;100328.04;127010;1278;107631;-75
2022/10/23 06:12:35;;;;;;;15.90;12.30;;;;;;;13.65;96.70;100330.34;126893;1279;107531;-76
2022/10/23 06:15:41;;;;;;;23.90;17.60;;;;;;;13.70;96.65;100336.30;126839;1279;107477;-77
2022/10/23 06:19:03;;;;;;;19.20;14.60;;;;;;;13.74;96.57;100338.83;126959;1285;106658;-76
2022/10/23 06:22:08;;;;;;;18.90;10.90;;;;;;;13.77;96.38;100342.31;126876;1286;107533;-76
2022/10/23 06:25:27;;;;;;;16.30;11.70;;;;;;;13.78;96.41;100345.09;126874;1271;107544;-76
2022/10/23 06:28:35;;;;;;;16.70;11.80;;;;;;;13.80;96.46;100343.73;126934;1286;107495;-76
2022/10/23 06:31:41;;;;;;;19.00;12.50;;;;;;;13.83;96.46;100341.93;126632;1289;107393;-75
2022/10/23 06:34:46;;;;;;;22.10;15.20;;;;;;;13.87;96.43;100338.80;126679;1279;107531;-77
2022/10/23 06:37:51;;;;;;;22.00;15.20;;;;;;;13.89;96.24;100340.38;126700;1282;107561;-77
2022/10/23 06:41:12;;;;;;;19.10;13.70;;;;;;;13.89;96.13;100345.05;126748;1282;107352;-78
2022/10/23 06:44:18;;;;;;;17.40;11.90;;;;;;;13.91;96.28;100342.14;126797;1289;106569;-77
2022/10/23 06:47:27;;;;;;;20.40;13.90;;;;;;;13.96;96.21;100344.80;126880;1287;107505;-77
2022/10/23 06:51:07;;;;;;;19.10;13.40;;;;;;;14.04;96.34;100345.71;126736;1286;107518;-77
2022/10/23 06:54:20;;;;;;;19.90;13.70;;;;;;;14.11;96.15;100346.69;126861;1279;107551;-77
2022/10/23 06:57:28;;;;;;;19.00;13.40;;;;;;;14.15;96.02;100340.70;126964;1280;107502;-78
2022/10/23 07:00:33;;;;;;;24.70;15.60;;;;;;;14.18;95.90;100344.11;126909;1272;106412;-77
2022/10/23 07:03:39;;;;;;;24.80;16.20;;;;;;;14.20;96.11;100340.15;126824;1293;109127;-79
2022/10/23 07:06:46;;;;;;;25.70;16.80;;;;;;;14.25;95.98;100336.04;126717;1278;107632;-77
2022/10/23 07:09:51;;;;;;;30.30;24.20;;;;;;;14.30;96.17;100340.80;126883;1279;107605;-75
2022/10/23 07:13:07;;;;;;;24.30;17.00;;;;;;;14.36;95.97;100343.30;127192;1278;108663;-80
2022/10/23 07:16:20;;;;;;;25.50;16.60;;;;;;;14.44;96.15;100343.62;126981;1278;107515;-78
2022/10/23 07:19:26;;;;;;;27.50;17.90;;;;;;;14.56;96.02;100342.13;126970;1286;106508;-78
2022/10/23 07:22:34;;;;;;;34.30;22.90;;;;;;;14.65;96.14;100339.34;126912;1279;107597;-76
2022/10/23 07:25:44;;;;;;;27.50;18.40;;;;;;;14.75;95.95;100341.27;127022;1273;107492;-77
2022/10/23 07:28:58;;;;;;;31.30;19.40;;;;;;;14.83;95.75;100341.94;126888;1286;107534;-78
2022/10/23 07:32:04;;;;;;;26.60;18.10;;;;;;;14.85;95.73;100337.66;126995;1279;107360;-77
2022/10/23 07:35:44;;;;;;;26.40;16.50;;;;;;;14.97;96.09;100342.40;126906;1279;107476;-76
2022/10/23 07:38:53;;;;;;;23.00;15.90;;;;;;;15.12;96.00;100335.09;126948;1286;107597;-78
2022/10/23 07:41:59;;;;;;;23.90;16.30;;;;;;;15.27;95.75;100335.81;127256;1272;107525;-79
2022/10/23 07:45:06;;;;;;;26.50;16.90;;;;;;;15.39;95.54;100338.02;126700;1289;107526;-78
2022/10/23 07:48:12;;;;;;;21.90;14.50;;;;;;;15.45;95.38;100334.13;127143;1286;107518;-78
2022/10/23 07:51:36;;;;;;;22.80;14.90;;;;;;;15.48;95.41;100335.81;127180;1275;107552;-78
2022/10/23 07:54:42;;;;;;;24.10;16.30;;;;;;;15.55;95.16;100336.52;127232;1278;107520;-80
2022/10/23 07:57:58;;;;;;;23.30;15.30;;;;;;;15.61;94.98;100336.66;127115;1279;107537;-80
2022/10/23 08:01:29;;;;;;;22.00;15.10;;;;;;;15.64;94.68;100333.44;127062;1279;107451;-78
2022/10/23 08:04:36;;;;;;;22.10;15.10;;;;;;;15.63;94.57;100334.96;127039;1285;107549;-82
2022/10/23 08:07:49;;;;;;;20.90;13.90;;;;;;;15.59;94.66;100332.08;127077;1279;107516;-80
2022/10/23 08:10:56;;;;;;;20.40;13.00;;;;;;;15.55;94.28;100327.05;127035;1279;107534;-79
2022/10/23 08:14:07;;;;;;;17.50;12.50;;;;;;;15.52;94.46;100325.12;126937;1278;107609;-81
2022/10/23 08:17:13;;;;;;;15.70;11.30;;;;;;;15.55;94.55;100324.78;127026;1282;107487;-80
2022/10/23 08:20:41;;;;;;;13.60;10.40;;;;;;;15.62;94.51;100328.05;127009;1279;107542;-80
2022/10/23 08:23:47;;;;;;;13.40;9.70;;;;;;;15.66;94.31;100333.34;126959;1276;106857;-78
2022/10/23 08:26:52;;;;;;;14.80;9.60;;;;;;;15.67;94.21;100343.25;126719;1285;107485;-78
2022/10/23 08:30:00;;;;;;;12.20;8.70;;;;;;;15.67;93.95;100346.08;126929;1272;106523;-77
2022/10/23 08:33:07;;;;;;;12.30;9.50;;;;;;;15.69;93.99;100341.34;126930;1279;108707;-78
2022/10/23 08:36:20;;;;;;;13.40;9.50;;;;;;;15.74;93.78;100338.86;126653;1275;107341;-76
2022/10/23 08:39:25;;;;;;;11.90;9.40;;;;;;;15.80;93.57;100339.08;126908;1278;107507;-76
2022/10/23 08:42:58;;;;;;;13.00;9.00;;;;;;;15.92;93.70;100345.73;126948;1279;107537;-78
2022/10/23 08:46:08;;;;;;;12.10;8.50;;;;;;;15.95;93.48;100345.91;126890;1295;107837;-75
2022/10/23 08:49:50;;;;;;;10.90;8.90;;;;;;;15.99;93.16;100356.89;126604;1279;107586;-76
2022/10/23 08:53:03;;;;;;;11.60;9.10;;;;;;;16.03;93.17;100354.09;126696;1278;107496;-78
2022/10/23 08:56:17;;;;;;;13.40;10.10;;;;;;;16.14;92.95;100352.55;126992;1279;107346;-77
2022/10/23 08:59:31;;;;;;;13.00;9.50;;;;;;;16.21;92.75;100353.66;126905;1286;107321;-77
2022/10/23 09:02:41;;;;;;;12.10;8.80;;;;;;;16.21;92.64;100354.79;126944;1285;107623;-77
2022/10/23 09:05:58;;;;;;;11.80;8.70;;;;;;;16.16;92.33;100357.70;126845;1278;108463;-77
2022/10/23 09:09:21;;;;;;;12.30;8.50;;;;;;;16.13;92.23;100352.10;126825;1286;107472;-77
2022/10/23 09:12:29;;;;;;;12.70;9.50;;;;;;;16.12;92.08;100352.46;127024;1279;108413;-77
2022/10/23 09:15:40;;;;;;;14.10;9.70;;;;;;;16.11;91.95;100357.52;126906;1280;106755;-77
2022/10/23 09:18:49;;;;;;;15.50;11.10;;;;;;;16.12;91.95;100361.99;126711;1278;107375;-77
2022/10/23 09:21:56;;;;;;;13.50;10.00;;;;;;;16.13;91.87;100371.67;126887;1279;107469;-76
2022/10/23 09:25:01;;;;;;;16.00;12.00;;;;;;;16.14;92.02;100375.20;126963;1272;107629;-77
2022/10/23 09:28:16;;;;;;;16.60;12.70;;;;;;;16.16;92.04;100381.02;126920;1285;107596;-78
2022/10/23 09:31:22;;;;;;;13.20;10.10;;;;;;;16.23;91.78;100385.11;126846;1278;107530;-79
2022/10/23 09:34:29;;;;;;;14.00;10.20;;;;;;;16.25;91.41;100389.66;126734;1272;108472;-78
2022/10/23 09:37:36;;;;;;;27.70;17.70;;;;;;;16.19;91.37;100392.50;127191;1279;106688;-78
2022/10/23 09:40:43;;;;;;;15.10;11.00;;;;;;;16.10;91.41;100388.02;127171;1286;107336;-79
2022/10/23 09:43:59;;;;;;;12.10;9.60;;;;;;;16.02;91.21;100385.35;127159;1276;106017;-76
2022/10/23 09:47:11;;;;;;;11.80;9.70;;;;;;;16.01;91.53;100389.13;127080;1278;107527;-82
2022/10/23 09:50:22;;;;;;;13.80;9.90;;;;;;;16.05;91.51;100389.41;126938;1280;107518;-79
2022/10/23 09:53:38;;;;;;;13.30;8.80;;;;;;;16.08;91.35;100389.61;127373;1296;107502;-80
2022/10/23 09:56:49;;;;;;;11.90;9.10;;;;;;;16.11;91.20;100389.35;127168;1286;106676;-80
2022/10/23 09:59:57;;;;;;;13.70;10.00;;;;;;;16.07;91.28;100385.21;127003;1286;108090;-79
2022/10/23 10:03:05;;;;;;;10.40;7.70;;;;;;;16.05;91.09;100384.65;127159;1279;106731;-81
2022/10/23 10:06:25;;;;;;;12.30;9.30;;;;;;;16.04;91.15;100389.36;127060;1280;107247;-75
2022/10/23 10:09:30;;;;;;;10.80;8.70;;;;;;;16.12;91.24;100392.27;126980;1280;105895;-76
2022/10/23 10:12:48;;;;;;;13.40;9.40;;;;;;;16.18;90.46;100389.96;127023;1278;107509;-77
2022/10/23 10:15:58;;;;;;;14.30;9.90;;;;;;;16.20;90.52;100388.05;126867;1279;107141;-76
2022/10/23 10:19:14;;;;;;;11.30;8.90;;;;;;;16.22;90.43;100387.64;126934;1279;107349;-76
2022/10/23 10:22:32;;;;;;;12.30;9.70;;;;;;;16.22;89.99;100385.79;126915;1280;107477;-77
2022/10/23 10:25:45;;;;;;;15.50;11.40;;;;;;;16.24;89.91;100388.86;127204;1286;107519;-76
2022/10/23 10:29:01;;;;;;;16.20;11.60;;;;;;;16.25;89.38;100389.73;126982;1275;107986;-76
2022/10/23 10:32:24;;;;;;;15.30;10.70;;;;;;;16.19;89.15;100393.03;126963;1279;107445;-75
2022/10/23 10:35:41;;;;;;;12.80;10.60;;;;;;;16.19;89.24;100386.20;126882;1280;107394;-78
2022/10/23 10:38:50;;;;;;;12.50;10.30;;;;;;;16.19;89.36;100382.14;126735;1279;264907;-77
2022/10/23 10:42:16;;;;;;;12.90;10.10;;;;;;;16.13;89.36;100382.77;126951;1276;107153;-78
2022/10/23 10:45:30;;;;;;;14.20;9.60;;;;;;;16.12;89.30;100382.61;126827;1285;107540;-76
2022/10/23 10:48:50;;;;;;;17.00;12.80;;;;;;;16.12;89.07;100379.02;127053;1284;107496;-77
2022/10/23 10:52:22;;;;;;;14.50;11.60;;;;;;;16.15;89.27;100374.92;126884;1286;106616;-77
2022/10/23 10:55:32;;;;;;;13.00;10.20;;;;;;;16.26;89.03;100372.65;126831;1278;106928;-77
2022/10/23 10:58:44;;;;;;;14.20;11.70;;;;;;;16.38;89.01;100370.00;126928;1284;107361;-77
2022/10/23 11:01:52;;;;;;;;;;;;;;;16.49;88.88;100364.54;126816;1286;107444;-78
2022/10/23 11:05:05;;;;;;;12.50;10.90;;;;;;;16.62;88.99;100360.66;126870;1284;107195;-76
2022/10/23 11:08:16;;;;;;;14.10;10.50;;;;;;;16.74;88.65;100357.59;126897;1285;107695;-78
2022/10/23 11:11:29;;;;;;;11.70;9.30;;;;;;;16.83;88.75;100352.83;126899;1286;107510;-81
2022/10/23 11:14:36;;;;;;;11.10;9.90;;;;;;;16.97;88.41;100342.73;126833;1301;106262;-81
2022/10/23 11:17:57;;;;;;;14.10;10.90;;;;;;;17.04;88.20;100346.16;126849;1294;107532;-84
2022/10/23 11:21:18;;;;;;;13.10;9.70;;;;;;;17.12;87.67;100348.96;126788;1288;107629;-82
2022/10/23 11:24:50;;;;;;;14.00;10.50;;;;;;;17.14;87.72;100353.50;126952;1287;107441;-77
2022/10/23 11:28:22;;;;;;;12.60;10.20;;;;;;;17.16;87.67;100353.28;126999;1286;107547;-79
2022/10/23 11:31:38;;;;;;;14.10;10.70;;;;;;;17.09;87.38;100349.94;127248;1276;107495;-79
2022/10/23 11:35:04;;;;;;;14.60;12.00;;;;;;;17.03;87.41;100349.52;127022;1286;107663;-79
2022/10/23 11:38:20;;;;;;;14.70;12.30;;;;;;;16.98;87.60;100352.66;127074;1282;107227;-81
2022/10/23 11:41:28;;;;;;;12.00;10.30;;;;;;;16.95;87.40;100350.02;127288;1286;106344;-80
2022/10/23 11:44:45;;;;;;;11.40;9.80;;;;;;;16.84;86.81;100346.65;127236;1279;107263;-80
2022/10/23 11:48:00;;;;;;;12.80;9.80;;;;;;;16.69;87.06;100346.83;127110;1278;107609;-81
2022/10/23 11:51:06;;;;;;;12.80;9.70;;;;;;;16.59;87.25;100349.15;127130;1278;107240;-79
2022/10/23 11:54:26;;;;;;;9.90;8.10;;;;;;;16.56;87.26;100350.20;127142;1284;106655;-85
2022/10/23 11:57:31;;;;;;;15.70;9.90;;;;;;;16.53;87.07;100347.80;127166;1288;108637;-82
2022/10/23 12:00:51;;;;;;;10.30;8.70;;;;;;;16.53;87.15;100344.70;127320;1285;107439;-81
2022/10/23 12:04:00;;;;;;;11.60;8.90;;;;;;;16.55;87.06;100342.10;127254;1284;107502;-82
2022/10/23 12:07:18;;;;;;;13.30;10.00;;;;;;;16.55;86.90;100342.98;126938;1285;107555;-85
2022/10/23 12:10:30;;;;;;;12.20;9.70;;;;;;;16.47;86.28;100343.09;127048;1289;108401;-88
2022/10/23 12:13:47;;;;;;;11.30;9.20;;;;;;;16.35;86.16;100341.95;127081;1280;107404;-85
2022/10/23 12:16:55;;;;;;;11.60;9.50;;;;;;;16.19;86.18;100342.45;127171;1285;107579;-79
2022/10/23 12:20:21;;;;;;;14.20;9.20;;;;;;;16.11;85.90;100339.83;127111;1284;107373;-78
2022/10/23 12:23:45;;;;;;;12.10;9.60;;;;;;;16.10;86.30;100337.59;127063;1277;107276;-77
2022/10/23 12:27:01;;;;;;;13.90;11.40;;;;;;;16.13;86.22;100343.20;126948;1285;107269;-77
2022/10/23 12:30:22;;;;;;;15.20;11.80;;;;;;;16.15;85.89;100342.08;127035;1286;107326;-78
2022/10/23 12:33:35;;;;;;;13.50;11.00;;;;;;;16.10;85.91;100344.45;127003;1286;107741;-81
2022/10/23 12:36:50;;;;;;;12.10;9.30;;;;;;;16.04;86.01;100343.38;126602;1285;107465;-80
2022/10/23 12:39:56;;;;;;;12.80;9.20;;;;;;;15.99;86.11;100346.67;126728;1278;108174;-78
2022/10/23 12:43:24;;;;;;;13.60;10.10;;;;;;;15.97;85.74;100349.33;127018;1285;107473;-83
2022/10/23 12:46:36;;;;;;;15.10;10.00;;;;;;;15.97;85.68;100345.04;127044;1282;107532;-83
2022/10/23 12:49:50;;;;;;;11.60;9.50;;;;;;;15.99;85.75;100343.02;127159;1285;107509;-82
2022/10/23 12:52:59;;;;;;;12.00;9.70;;;;;;;16.03;85.75;100335.21;127099;1285;107587;-82
2022/10/23 12:56:06;;;;;;;12.20;9.00;;;;;;;16.07;85.82;100332.88;127075;1286;107503;-81
2022/10/23 12:59:17;;;;;;;15.70;9.10;;;;;;;16.15;85.71;100329.15;127195;1284;106604;-80
2022/10/23 13:02:28;;;;;;;11.60;8.60;;;;;;;16.21;85.32;100324.46;127172;1288;107504;-80
2022/10/23 13:05:35;;;;;;;10.50;8.40;;;;;;;16.24;85.29;100317.25;127214;1285;107591;-75
2022/10/23 13:08:44;;;;;;;12.10;9.20;;;;;;;16.28;85.13;100318.01;127062;1278;107286;-76
2022/10/23 13:12:25;;;;;;;12.20;8.70;;;;;;;16.38;85.15;100319.79;126894;1284;107511;-76
2022/10/23 13:15:40;;;;;;;11.90;9.30;;;;;;;16.46;85.11;100320.54;126975;1286;107592;-77
2022/10/23 13:18:45;;;;;;;13.00;9.60;;;;;;;16.55;85.04;100319.39;126942;1281;107456;-77
2022/10/23 13:21:51;;;;;;;11.50;9.30;;;;;;;16.60;85.00;100313.30;126834;1285;106631;-76
2022/10/23 13:24:56;;;;;;;15.80;10.40;;;;;;;16.61;84.80;100313.76;126862;1284;107415;-78
2022/10/23 13:28:20;;;;;;;12.50;9.40;;;;;;;16.54;83.92;100318.21;126906;1286;107336;-76
2022/10/23 13:31:33;;;;;;;12.80;9.10;;;;;;;16.38;84.19;100320.06;126914;1287;107774;-77
2022/10/23 13:34:39;;;;;;;12.30;9.40;;;;;;;16.32;84.25;100320.25;126692;1288;107628;-79
2022/10/23 13:37:47;;;;;;;11.90;8.40;;;;;;;16.29;84.78;100321.45;126760;1286;107497;-76
2022/10/23 13:40:58;;;;;;;13.60;10.60;;;;;;;16.34;84.65;100317.45;127321;1286;107518;-78
2022/10/23 13:44:04;;;;;;;12.80;8.80;;;;;;;16.39;84.69;100318.77;127237;1278;107248;-77
2022/10/23 13:47:13;;;;;;;12.10;7.50;;;;;;;16.48;84.45;100317.13;127650;1297;105515;-78
2022/10/23 13:50:19;;;;;;;9.50;7.20;;;;;;;16.50;84.28;100316.52;127070;1285;107407;-78
2022/10/23 13:53:26;;;;;;;10.10;6.80;;;;;;;16.53;84.10;100315.88;126732;1294;107514;-76
2022/10/23 13:56:31;;;;;;;12.00;7.40;;;;;;;16.52;84.21;100318.45;126836;1284;107360;-78
2022/10/23 13:59:37;;;;;;;12.50;7.00;;;;;;;16.49;83.91;100311.83;126793;1278;107495;-77
2022/10/23 14:02:43;;;;;;;8.80;6.70;;;;;;;16.40;83.75;100313.60;126736;1281;108014;-78
2022/10/23 14:05:48;;;;;;;9.00;6.70;;;;;;;16.33;84.04;100312.69;126671;1288;108052;-77
2022/10/23 14:08:53;;;;;;;10.30;7.10;;;;;;;16.29;84.10;100313.88;126771;1284;107509;-77
2022/10/23 14:11:59;;;;;;;8.40;7.50;;;;;;;16.24;83.95;100303.59;126798;1288;106676;-78
2022/10/23 14:15:05;;;;;;;10.10;6.90;;;;;;;16.13;84.03;100298.44;126849;1286;107517;-77